createdAt,value
2022-08-18T00:01:06.976Z,10.47
2022-08-18T00:03:57.394Z,10.83
2022-08-18T00:06:21.279Z,12.23
2022-08-18T00:08:48.021Z,11.20
2022-08-18T00:11:16.291Z,11.83
2022-08-18T00:13:43.026Z,13.17
2022-08-18T00:16:09.790Z,11.63
2022-08-18T00:18:37.032Z,11.20
2022-08-18T00:21:03.829Z,11.47
2022-08-18T00:23:32.005Z,11.13
2022-08-18T00:26:00.397Z,11.87
2022-08-18T00:28:27.638Z,11.53
2022-08-18T00:30:54.511Z,10.73
2022-08-18T00:33:22.144Z,10.80
2022-08-18T00:35:50.355Z,11.50
2022-08-18T00:38:24.225Z,11.63
2022-08-18T00:40:55.074Z,11.70
2022-08-18T00:43:45.636Z,11.77
2022-08-18T00:46:20.565Z,11.33
2022-08-18T00:48:49.394Z,11.10
2022-08-18T00:51:37.435Z,12.50
2022-08-18T00:54:15.809Z,11.70
2022-08-18T00:56:49.052Z,12.80
2022-08-18T00:59:31.475Z,12.00
2022-08-18T01:02:02.670Z,13.03
2022-08-18T01:04:36.338Z,11.80
2022-08-18T01:07:36.128Z,10.97
2022-08-18T01:10:05.809Z,11.87
2022-08-18T01:12:45.673Z,12.17
2022-08-18T01:15:27.826Z,10.77
2022-08-18T01:18:21.526Z,11.10
2022-08-18T01:21:19.872Z,12.93
2022-08-18T01:23:48.012Z,11.73
2022-08-18T01:26:17.749Z,11.57
2022-08-18T01:28:46.550Z,12.20
2022-08-18T01:31:32.907Z,11.93
2022-08-18T01:34:01.153Z,12.00
2022-08-18T01:36:29.888Z,13.30
2022-08-18T01:38:57.372Z,11.33
2022-08-18T01:41:30.451Z,11.67
2022-08-18T01:43:59.715Z,11.40
2022-08-18T01:46:29.281Z,12.17
2022-08-18T01:48:58.588Z,10.83
2022-08-18T01:51:40.428Z,12.43
2022-08-18T01:54:14.093Z,11.47
2022-08-18T01:56:42.952Z,12.27
2022-08-18T01:59:14.202Z,12.77
2022-08-18T02:01:50.331Z,11.20
2022-08-18T02:04:35.556Z,13.17
2022-08-18T02:07:08.080Z,15.00
2022-08-18T02:09:36.960Z,11.40
2022-08-18T02:12:05.861Z,11.57
2022-08-18T02:14:33.836Z,12.53
2022-08-18T02:17:02.888Z,12.17
2022-08-18T02:19:42.562Z,12.20
2022-08-18T02:22:11.942Z,12.67
2022-08-18T02:24:39.540Z,12.43
2022-08-18T02:27:07.560Z,11.80
2022-08-18T02:29:34.971Z,13.20
2022-08-18T02:32:02.129Z,14.13
2022-08-18T02:34:29.371Z,13.90
2022-08-18T02:36:56.668Z,13.57
2022-08-18T02:39:23.496Z,13.10
2022-08-18T02:41:50.711Z,12.23
2022-08-18T02:44:17.945Z,13.20
2022-08-18T02:46:45.177Z,13.00
2022-08-18T02:49:12.829Z,11.83
2022-08-18T02:51:41.282Z,12.70
2022-08-18T02:54:09.521Z,11.63
2022-08-18T02:56:41.010Z,13.50
2022-08-18T02:59:13.699Z,12.03
2022-08-18T03:01:48.022Z,13.43
2022-08-18T03:04:21.147Z,11.70
2022-08-18T03:06:49.824Z,13.53
2022-08-18T03:09:19.088Z,16.10
2022-08-18T03:11:46.378Z,13.80
2022-08-18T03:14:14.707Z,14.00
2022-08-18T03:16:52.635Z,12.73
2022-08-18T03:19:23.274Z,14.20
2022-08-18T03:21:50.731Z,13.20
2022-08-18T03:24:22.847Z,13.93
2022-08-18T03:26:51.605Z,14.33
2022-08-18T03:29:18.850Z,14.50
2022-08-18T03:31:45.789Z,15.10
2022-08-18T03:34:12.834Z,14.30
2022-08-18T03:36:40.000Z,15.50
2022-08-18T03:39:10.211Z,13.63
2022-08-18T03:41:59.264Z,16.23
2022-08-18T03:44:28.192Z,14.20
2022-08-18T03:46:55.471Z,15.60
2022-08-18T03:49:23.118Z,13.77
2022-08-18T03:51:52.605Z,14.57
2022-08-18T03:54:19.508Z,14.40
2022-08-18T03:56:48.353Z,15.67
2022-08-18T03:59:19.104Z,15.10
2022-08-18T04:01:48.608Z,14.60
2022-08-18T04:04:20.108Z,14.00
2022-08-18T04:06:54.390Z,14.50
2022-08-18T04:09:26.171Z,14.40
2022-08-18T04:11:58.081Z,14.07
2022-08-18T04:14:30.991Z,15.20
2022-08-18T04:16:59.224Z,13.93
2022-08-18T04:19:27.695Z,13.80
2022-08-18T04:21:57.441Z,15.10
2022-08-18T04:24:26.133Z,15.90
2022-08-18T04:26:53.770Z,15.60
2022-08-18T04:29:21.818Z,15.17
2022-08-18T04:31:52.120Z,15.17
2022-08-18T04:34:21.062Z,15.53
2022-08-18T04:36:49.009Z,15.47
2022-08-18T04:39:16.208Z,15.17
2022-08-18T04:41:44.075Z,15.87
2022-08-18T04:44:12.693Z,17.07
2022-08-18T04:46:43.808Z,18.00
2022-08-18T04:49:11.834Z,16.83
2022-08-18T04:52:36.365Z,17.17
2022-08-18T04:54:29.972Z,16.97
2022-08-18T04:56:57.114Z,15.10
2022-08-18T04:59:25.002Z,15.20
2022-08-18T05:01:51.764Z,15.80
2022-08-18T05:04:18.814Z,16.70
2022-08-18T05:06:48.326Z,15.80
2022-08-18T05:09:16.547Z,16.00
2022-08-18T05:11:44.605Z,17.13
2022-08-18T05:14:11.924Z,16.97
2022-08-18T05:16:48.272Z,17.17
2022-08-18T05:19:23.360Z,18.33
2022-08-18T05:21:58.373Z,17.70
2022-08-18T05:24:34.075Z,16.27
2022-08-18T05:27:05.582Z,16.10
2022-08-18T05:29:45.899Z,17.33
2022-08-18T05:32:30.421Z,16.93
2022-08-18T05:35:29.464Z,15.47
2022-08-18T05:38:33.688Z,15.00
2022-08-18T05:41:14.778Z,16.83
2022-08-18T05:43:51.820Z,17.00
2022-08-18T05:46:25.001Z,15.60
2022-08-18T05:48:51.781Z,15.13
2022-08-18T05:51:28.780Z,16.73
2022-08-18T05:54:14.720Z,14.33
2022-08-18T05:56:48.499Z,15.57
2022-08-18T05:59:21.209Z,15.43
2022-08-18T06:01:54.736Z,15.87
2022-08-18T06:04:56.014Z,15.23
2022-08-18T06:07:33.412Z,16.03
2022-08-18T06:10:00.697Z,17.60
2022-08-18T06:12:37.612Z,15.60
2022-08-18T06:15:14.494Z,16.17
2022-08-18T06:18:07.257Z,17.03
2022-08-18T06:21:16.396Z,15.87
2022-08-18T06:24:07.120Z,14.87
2022-08-18T06:26:56.737Z,17.27
2022-08-18T06:29:43.027Z,16.67
2022-08-18T06:32:28.245Z,16.67
2022-08-18T06:35:21.698Z,17.30
2022-08-18T06:38:36.355Z,15.60
2022-08-18T06:41:41.572Z,16.73
2022-08-18T06:44:03.509Z,17.00
2022-08-18T06:46:56.459Z,17.00
2022-08-18T06:49:43.176Z,17.13
2022-08-18T06:52:35.373Z,18.40
2022-08-18T06:55:11.442Z,17.40
2022-08-18T06:57:53.683Z,16.90
2022-08-18T07:00:32.625Z,17.80
2022-08-18T07:03:18.042Z,16.83
2022-08-18T07:06:04.505Z,17.27
2022-08-18T07:08:31.214Z,14.43
2022-08-18T07:11:21.479Z,15.23
2022-08-18T07:14:09.131Z,15.20
2022-08-18T07:16:57.766Z,15.30
2022-08-18T07:19:30.928Z,13.47
2022-08-18T07:22:19.678Z,14.00
2022-08-18T07:25:04.967Z,12.60
2022-08-18T07:27:50.005Z,13.47
2022-08-18T07:30:22.741Z,14.20
2022-08-18T07:33:04.893Z,12.20
2022-08-18T07:35:58.799Z,13.33
2022-08-18T07:38:54.062Z,13.77
2022-08-18T07:41:26.927Z,13.47
2022-08-18T07:44:09.943Z,11.30
2022-08-18T07:46:54.203Z,11.70
2022-08-18T07:49:25.063Z,11.97
2022-08-18T07:52:43.860Z,13.27
2022-08-18T07:55:31.458Z,12.37
2022-08-18T07:58:23.236Z,13.00
2022-08-18T08:01:07.977Z,10.90
2022-08-18T08:03:48.377Z,12.03
2022-08-18T08:06:39.542Z,12.47
2022-08-18T08:09:39.321Z,12.57
2022-08-18T08:12:35.570Z,12.20
2022-08-18T08:15:17.747Z,11.87
2022-08-18T08:18:04.739Z,12.73
2022-08-18T08:20:40.977Z,11.20
2022-08-18T08:23:35.055Z,13.40
2022-08-18T08:26:04.715Z,11.67
2022-08-18T08:28:51.313Z,12.37
2022-08-18T08:32:00.795Z,12.40
2022-08-18T08:34:55.778Z,13.30
2022-08-18T08:37:33.327Z,12.00
2022-08-18T08:40:22.233Z,12.40
2022-08-18T08:43:15.713Z,12.80
2022-08-18T08:45:53.530Z,12.13
2022-08-18T08:48:27.709Z,10.97
2022-08-18T08:50:57.818Z,12.03
2022-08-18T08:53:29.934Z,11.80
2022-08-18T08:56:09.909Z,11.47
2022-08-18T08:58:43.138Z,11.67
2022-08-18T09:01:22.660Z,12.37
2022-08-18T09:03:58.670Z,12.47
2022-08-18T09:06:58.504Z,10.80
2022-08-18T09:09:49.654Z,10.90
2022-08-18T09:12:25.986Z,11.70
2022-08-18T09:15:20.637Z,11.80
2022-08-18T09:17:56.183Z,11.97
2022-08-18T09:20:54.775Z,10.30
2022-08-18T09:23:25.228Z,10.20
2022-08-18T09:26:01.066Z,11.70
2022-08-18T09:28:30.970Z,11.20
2022-08-18T09:31:08.654Z,10.63
2022-08-18T09:33:40.824Z,11.40
2022-08-18T09:36:32.874Z,10.67
2022-08-18T09:39:58.351Z,10.70
2022-08-18T09:42:49.684Z,9.00
2022-08-18T09:45:53.079Z,11.10
2022-08-18T09:48:28.689Z,9.83
2022-08-18T09:51:17.725Z,10.83
2022-08-18T09:53:52.544Z,10.23
2022-08-18T09:56:53.985Z,9.90
2022-08-18T09:59:34.153Z,9.97
2022-08-18T10:02:03.943Z,10.97
2022-08-18T10:04:48.757Z,10.40
2022-08-18T10:07:38.750Z,10.37
2022-08-18T10:11:01.084Z,10.70
2022-08-18T10:13:38.716Z,10.23
2022-08-18T10:16:10.701Z,9.80
2022-08-18T10:18:54.404Z,10.33
2022-08-18T10:21:33.587Z,9.83
2022-08-18T10:24:36.431Z,9.30
2022-08-18T10:27:31.502Z,10.00
2022-08-18T10:30:00.567Z,11.23
2022-08-18T10:32:54.360Z,9.50
2022-08-18T10:35:36.791Z,10.47
2022-08-18T10:38:22.359Z,9.40
2022-08-18T10:41:10.210Z,8.90
2022-08-18T10:43:57.344Z,8.67
2022-08-18T10:46:33.411Z,7.60
2022-08-18T10:49:13.397Z,9.77
2022-08-18T10:55:00.753Z,8.47
2022-08-18T10:57:54.583Z,7.83
2022-08-18T11:00:22.957Z,8.00
2022-08-18T11:03:21.116Z,7.40
2022-08-18T11:05:42.647Z,6.80
2022-08-18T11:08:17.489Z,6.57
2022-08-18T11:11:24.562Z,7.77
2022-08-18T11:13:58.922Z,8.37
2022-08-18T11:16:44.965Z,8.47
2022-08-18T11:19:17.101Z,9.90
2022-08-18T11:21:51.338Z,9.00
2022-08-18T11:27:25.185Z,8.20
2022-08-18T11:29:53.148Z,9.20
2022-08-18T11:32:34.835Z,8.30
2022-08-18T11:35:13.588Z,7.10
2022-08-18T11:38:02.574Z,7.97
2022-08-18T11:43:41.121Z,7.70
2022-08-18T11:46:28.116Z,9.93
2022-08-18T11:49:00.308Z,10.60
2022-08-18T11:51:33.219Z,10.10
2022-08-18T11:54:13.839Z,10.03
2022-08-18T11:56:40.714Z,10.90
2022-08-18T11:59:53.117Z,10.40
2022-08-18T12:02:21.288Z,10.90
2022-08-18T12:05:03.018Z,11.10
2022-08-18T12:07:42.318Z,10.50
2022-08-18T12:10:29.278Z,10.93
2022-08-18T12:13:00.857Z,9.83
2022-08-18T12:15:44.406Z,9.60
2022-08-18T12:18:26.333Z,9.90
2022-08-18T12:20:58.580Z,11.70
2022-08-18T12:23:26.753Z,11.13
2022-08-18T12:25:53.936Z,11.53
2022-08-18T12:28:22.160Z,10.70
2022-08-18T12:30:57.062Z,11.90
2022-08-18T12:33:34.459Z,10.73
2022-08-18T12:36:15.806Z,11.23
2022-08-18T12:38:51.933Z,11.07
2022-08-18T12:41:24.223Z,12.07
2022-08-18T12:43:58.918Z,11.47
2022-08-18T12:46:38.141Z,14.33
2022-08-18T12:49:18.659Z,12.47
2022-08-18T12:51:50.450Z,12.30
2022-08-18T12:54:18.391Z,11.60
2022-08-18T12:56:54.796Z,11.40
2022-08-18T12:59:24.530Z,13.43
2022-08-18T13:01:52.139Z,12.00
2022-08-18T13:07:13.470Z,13.33
2022-08-18T13:09:53.321Z,13.10
2022-08-18T13:12:21.440Z,13.43
2022-08-18T13:14:51.007Z,12.20
2022-08-18T13:17:30.490Z,13.57
2022-08-18T13:20:03.750Z,12.73
2022-08-18T13:22:32.542Z,11.77
2022-08-18T13:25:03.723Z,13.07
2022-08-18T13:27:33.655Z,13.00
2022-08-18T13:30:30.159Z,13.20
2022-08-18T13:32:59.360Z,11.17
2022-08-18T13:35:29.987Z,12.40
2022-08-18T13:38:12.332Z,12.50
2022-08-18T13:40:45.648Z,11.03
2022-08-18T13:43:15.752Z,10.50
2022-08-18T13:45:52.839Z,10.27
2022-08-18T13:48:20.441Z,9.97
2022-08-18T13:50:47.643Z,11.23
2022-08-18T13:53:22.405Z,9.83
2022-08-18T13:55:51.456Z,10.00
2022-08-18T13:58:20.725Z,9.30
2022-08-18T14:00:54.026Z,10.40
2022-08-18T14:03:42.583Z,9.83
2022-08-18T14:06:13.331Z,9.43
2022-08-18T14:08:41.437Z,10.00
2022-08-18T14:11:09.799Z,10.67
2022-08-18T14:13:38.371Z,8.83
2022-08-18T14:16:18.590Z,9.23
2022-08-18T14:19:09.411Z,8.33
2022-08-18T14:22:06.073Z,8.30
2022-08-18T14:24:53.870Z,7.97
2022-08-18T14:27:27.069Z,9.17
2022-08-18T14:30:03.905Z,7.90
2022-08-18T14:32:36.333Z,7.90
2022-08-18T14:35:33.747Z,9.50
2022-08-18T14:37:53.970Z,7.80
2022-08-18T14:40:23.133Z,7.90
2022-08-18T14:42:54.307Z,8.10
2022-08-18T14:45:34.006Z,7.77
2022-08-18T14:48:07.168Z,7.30
2022-08-18T14:50:49.017Z,8.37
2022-08-18T14:53:20.217Z,8.47
2022-08-18T14:55:52.177Z,7.60
2022-08-18T14:58:20.990Z,8.10
2022-08-18T15:00:53.936Z,8.40
2022-08-18T15:03:31.105Z,6.87
2022-08-18T15:06:00.638Z,8.00
2022-08-18T15:08:34.399Z,7.63
2022-08-18T15:11:03.564Z,7.60
2022-08-18T15:13:30.559Z,7.80
2022-08-18T15:16:02.077Z,7.67
2022-08-18T15:18:29.687Z,7.80
2022-08-18T15:21:19.552Z,7.00
2022-08-18T15:24:23.058Z,7.67
2022-08-18T15:26:57.683Z,8.20
2022-08-18T15:29:29.469Z,7.43
2022-08-18T15:32:05.878Z,8.43
2022-08-18T15:34:47.257Z,6.90
2022-08-18T15:37:23.999Z,7.77
2022-08-18T15:40:02.580Z,7.73
2022-08-18T15:42:29.815Z,7.90
2022-08-18T15:44:56.877Z,7.70
2022-08-18T15:47:25.038Z,6.70
2022-08-18T15:49:52.232Z,8.73
2022-08-18T15:52:23.318Z,7.30
2022-08-18T15:54:53.895Z,8.20
2022-08-18T15:57:38.827Z,8.20
2022-08-18T16:00:08.569Z,8.87
2022-08-18T16:02:48.543Z,7.10
2022-08-18T16:05:16.890Z,7.40
2022-08-18T16:07:47.690Z,7.90
2022-08-18T16:10:16.990Z,7.13
2022-08-18T16:12:46.274Z,8.40
2022-08-18T16:15:21.484Z,8.20
2022-08-18T16:17:50.555Z,8.20
2022-08-18T16:20:18.908Z,8.03
2022-08-18T16:22:47.216Z,7.10
2022-08-18T16:25:14.579Z,8.17
2022-08-18T16:27:41.838Z,8.37
2022-08-18T16:30:15.694Z,7.20
2022-08-18T16:32:42.585Z,7.97
2022-08-18T16:35:11.193Z,8.00
2022-08-18T16:37:38.158Z,7.80
2022-08-18T16:40:06.451Z,8.20
2022-08-18T16:42:33.334Z,8.27
2022-08-18T16:45:01.817Z,7.87
2022-08-18T16:47:31.398Z,9.40
2022-08-18T16:50:00.025Z,7.60
2022-08-18T16:52:27.319Z,7.87
2022-08-18T16:54:57.782Z,8.23
2022-08-18T16:57:53.605Z,8.77
2022-08-18T17:00:41.964Z,8.53
2022-08-18T17:03:28.108Z,7.23
2022-08-18T17:06:06.745Z,7.13
2022-08-18T17:08:35.080Z,7.80
2022-08-18T17:11:03.365Z,7.93
2022-08-18T17:13:31.518Z,7.90
2022-08-18T17:15:58.573Z,7.93
2022-08-18T17:18:26.019Z,7.03
2022-08-18T17:20:53.800Z,8.03
2022-08-18T17:23:23.718Z,8.17
2022-08-18T17:25:51.143Z,9.30
2022-08-18T17:28:23.041Z,7.57
2022-08-18T17:30:53.338Z,8.20
2022-08-18T17:33:24.985Z,7.17
2022-08-18T17:35:54.154Z,8.13
2022-08-18T17:38:34.647Z,8.97
2022-08-18T17:41:02.850Z,8.37
2022-08-18T17:43:33.156Z,8.60
2022-08-18T17:46:12.777Z,8.27
2022-08-18T17:48:54.406Z,7.93
2022-08-18T17:51:43.391Z,9.10
2022-08-18T17:54:37.054Z,8.80
2022-08-18T17:57:14.754Z,8.73
2022-08-18T17:59:52.010Z,8.30
2022-08-18T18:02:29.875Z,7.93
2022-08-18T18:05:04.855Z,7.97
2022-08-18T18:07:53.682Z,8.70
2022-08-18T18:13:33.552Z,8.77
2022-08-18T18:16:22.626Z,9.17
2022-08-18T18:19:01.019Z,9.07
2022-08-18T18:21:57.607Z,9.73
2022-08-18T18:24:23.805Z,8.83
2022-08-18T18:26:52.595Z,10.30
2022-08-18T18:29:32.313Z,8.83
2022-08-18T18:32:22.285Z,9.70
2022-08-18T18:35:08.282Z,8.90
2022-08-18T18:37:44.723Z,9.83
2022-08-18T18:40:54.183Z,9.10
2022-08-18T18:43:35.280Z,10.63
2022-08-18T18:46:32.516Z,10.17
2022-08-18T18:49:32.405Z,11.70
2022-08-18T18:52:26.560Z,9.40
2022-08-18T18:55:00.235Z,9.70
2022-08-18T18:57:48.408Z,9.13
2022-08-18T19:00:23.205Z,10.17
2022-08-18T19:03:19.618Z,9.83
2022-08-18T19:06:15.549Z,8.80
2022-08-18T19:09:12.376Z,9.20
2022-08-18T19:12:03.956Z,9.87
2022-08-18T19:14:35.367Z,10.33
2022-08-18T19:17:15.962Z,8.93
2022-08-18T19:20:06.137Z,9.73
2022-08-18T19:22:54.693Z,9.63
2022-08-18T19:25:26.451Z,8.97
2022-08-18T19:28:06.445Z,9.60
2022-08-18T19:30:36.893Z,10.83
2022-08-18T19:33:07.778Z,9.60
2022-08-18T19:35:43.396Z,9.40
2022-08-18T19:38:24.948Z,11.13
2022-08-18T19:40:58.754Z,9.23
2022-08-18T19:43:44.460Z,9.97
2022-08-18T19:46:47.069Z,8.27
2022-08-18T19:49:32.689Z,10.43
2022-08-18T19:52:06.036Z,10.33
2022-08-18T19:55:10.100Z,10.60
2022-08-18T19:58:03.933Z,12.70
2022-08-18T20:00:57.910Z,9.47
2022-08-18T20:03:47.514Z,9.70
2022-08-18T20:07:01.125Z,10.83
2022-08-18T20:09:56.257Z,10.93
2022-08-18T20:12:50.737Z,11.23
2022-08-18T20:15:25.341Z,9.47
2022-08-18T20:17:58.998Z,10.80
2022-08-18T20:20:38.205Z,10.30
2022-08-18T20:23:35.777Z,10.03
2022-08-18T20:26:02.883Z,9.93
2022-08-18T20:28:40.633Z,11.20
2022-08-18T20:31:12.970Z,10.47
2022-08-18T20:33:43.853Z,9.93
2022-08-18T20:36:32.823Z,11.10
2022-08-18T20:39:02.377Z,9.67
2022-08-18T20:41:30.438Z,10.90
2022-08-18T20:44:29.071Z,10.07
2022-08-18T20:47:11.092Z,11.40
2022-08-18T20:50:16.562Z,11.50
2022-08-18T20:52:58.855Z,11.33
2022-08-18T20:55:38.561Z,10.53
2022-08-18T20:58:22.584Z,9.70
2022-08-18T21:00:55.178Z,9.90
2022-08-18T21:03:36.343Z,11.50
2022-08-18T21:06:09.215Z,9.97
2022-08-18T21:08:38.336Z,11.20
2022-08-18T21:11:41.169Z,10.10
2022-08-18T21:14:09.857Z,9.27
2022-08-18T21:19:39.008Z,10.00
2022-08-18T21:22:07.465Z,9.10
2022-08-18T21:24:43.957Z,10.90
2022-08-18T21:27:30.043Z,9.20
2022-08-18T21:30:06.517Z,9.40
2022-08-18T21:32:36.813Z,12.00
2022-08-18T21:35:40.751Z,11.90
2022-08-18T21:38:10.912Z,10.70
2022-08-18T21:40:43.952Z,9.50
2022-08-18T21:43:30.974Z,11.20
2022-08-18T21:46:00.473Z,9.03
2022-08-18T21:48:28.831Z,9.73
2022-08-18T21:51:00.591Z,9.80
2022-08-18T21:53:33.480Z,9.47
2022-08-18T21:56:01.483Z,9.73
2022-08-18T21:58:34.975Z,9.70
2022-08-18T22:01:21.594Z,9.50
2022-08-18T22:04:01.210Z,9.17
2022-08-18T22:06:34.022Z,9.70
2022-08-18T22:09:28.695Z,9.93
2022-08-18T22:12:32.769Z,10.50
2022-08-18T22:15:17.536Z,9.33
2022-08-18T22:17:52.068Z,8.77
2022-08-18T22:20:37.093Z,9.57
2022-08-18T22:23:34.307Z,8.60
2022-08-18T22:26:21.273Z,8.37
2022-08-18T22:29:00.087Z,7.70
2022-08-18T22:31:33.912Z,8.63
2022-08-18T22:34:07.975Z,8.77
2022-08-18T22:36:59.422Z,10.07
2022-08-18T22:39:34.929Z,9.20
2022-08-18T22:42:03.546Z,7.80
2022-08-18T22:44:30.392Z,9.03
2022-08-18T22:46:58.606Z,9.60
2022-08-18T22:49:26.492Z,10.27
2022-08-18T22:51:54.975Z,9.40
2022-08-18T22:54:23.934Z,9.10
2022-08-18T22:56:54.121Z,10.00
2022-08-18T22:59:27.052Z,9.47
2022-08-18T23:01:57.318Z,9.70
2022-08-18T23:04:25.831Z,10.43
2022-08-18T23:06:54.366Z,9.83
2022-08-18T23:09:32.006Z,7.87
2022-08-18T23:12:05.734Z,9.50
2022-08-18T23:14:36.485Z,9.97
2022-08-18T23:17:05.637Z,8.93
2022-08-18T23:19:33.615Z,8.83
2022-08-18T23:22:02.031Z,9.40
2022-08-18T23:24:29.600Z,7.63
2022-08-18T23:26:59.002Z,8.27
2022-08-18T23:29:26.193Z,10.60
2022-08-18T23:31:53.895Z,8.07
2022-08-18T23:34:23.338Z,9.50
2022-08-18T23:37:01.293Z,9.83
2022-08-18T23:39:30.427Z,8.73
2022-08-18T23:41:58.318Z,8.60
2022-08-18T23:44:27.694Z,7.73
2022-08-18T23:46:56.488Z,9.13
2022-08-18T23:49:23.538Z,9.40
2022-08-18T23:51:52.229Z,9.03
2022-08-18T23:54:27.090Z,8.40
2022-08-18T23:56:54.191Z,7.93
2022-08-18T23:59:23.064Z,8.10
